Time;durP1;ratioP1;P1;durP2;ratioP2;P2;SDS_P1;SDS_P2;PMS_P1;PMS_P2;Temp;Humidity;BMP_temperature;BMP_pressure;BME280_temperature;BME280_humidity;BME280_pressure;Samples;Min_cycle;Max_cycle;Signal;HPM_P1;HPM_P2
2023/09/11 00:01:59;;;;;;;12.38;6.85;;;17.50;99.90;;;16.48;100.00;97638.84;5063999;28;20055;-72
2023/09/11 00:04:26;;;;;;;16.02;6.57;;;17.50;99.90;;;16.45;100.00;97628.56;5059563;28;20140;-73
2023/09/11 00:06:53;;;;;;;10.23;4.82;;;17.50;99.90;;;16.39;100.00;97629.78;5063592;28;20048;-73
2023/09/11 00:09:21;;;;;;;12.60;4.93;;;17.50;99.90;;;16.42;100.00;97633.97;5061519;28;20059;-73
2023/09/11 00:11:48;;;;;;;17.08;6.97;;;17.50;99.90;;;16.45;100.00;97633.81;5062852;28;20046;-73
2023/09/11 00:14:18;;;;;;;9.02;5.00;;;17.40;99.90;;;16.34;100.00;97634.50;5060563;28;20052;-73
2023/09/11 00:16:45;;;;;;;11.05;5.03;;;17.40;99.90;;;16.39;100.00;97634.19;5061629;28;20067;-73
2023/09/11 00:19:12;;;;;;;16.60;7.15;;;17.40;99.90;;;16.31;100.00;97629.47;5062765;28;20048;-73
2023/09/11 00:21:41;;;;;;;14.73;4.60;;;17.40;99.90;;;16.39;100.00;97627.16;5063955;28;20044;-73
2023/09/11 00:24:09;;;;;;;9.32;5.60;;;17.40;99.90;;;16.30;100.00;97627.78;5078678;28;20529;-73
2023/09/11 00:26:36;;;;;;;14.85;7.20;;;17.40;99.90;;;16.21;100.00;97629.19;5063360;28;20057;-73
2023/09/11 00:29:03;;;;;;;16.50;6.97;;;17.30;99.90;;;16.08;100.00;97631.78;5061118;28;20045;-72
2023/09/11 00:31:30;;;;;;;10.18;6.60;;;17.30;99.90;;;16.06;100.00;97632.81;5060525;28;20120;-73
2023/09/11 00:33:58;;;;;;;13.55;6.50;;;17.20;99.90;;;15.99;100.00;97631.53;5059999;28;20048;-73
2023/09/11 00:36:25;;;;;;;18.88;6.00;;;17.20;99.90;;;15.92;100.00;97631.09;5060834;28;20421;-72
2023/09/11 00:38:52;;;;;;;9.02;4.93;;;17.10;99.90;;;15.89;100.00;97623.41;5060586;28;20106;-73
2023/09/11 00:41:19;;;;;;;14.57;5.55;;;17.00;99.90;;;15.82;100.00;97625.56;5061760;28;20059;-73
2023/09/11 00:43:46;;;;;;;14.88;7.30;;;16.90;99.90;;;15.80;100.00;97630.06;5062249;28;20053;-73
2023/09/11 00:46:14;;;;;;;8.75;4.50;;;16.90;99.90;;;15.95;100.00;97623.03;5061208;28;20165;-73
2023/09/11 00:48:41;;;;;;;10.10;6.28;;;16.90;99.90;;;15.89;100.00;97612.94;5061821;28;20052;-73
2023/09/11 00:51:09;;;;;;;15.35;5.47;;;16.90;99.90;;;15.71;100.00;97611.50;5055404;28;20044;-73
2023/09/11 00:53:37;;;;;;;12.52;5.45;;;16.90;99.90;;;15.81;100.00;97620.47;5063679;28;20056;-73
2023/09/11 00:56:04;;;;;;;10.43;6.10;;;16.90;99.90;;;15.85;100.00;97622.78;5078894;28;20495;-73
2023/09/11 00:58:31;;;;;;;12.93;5.38;;;16.90;99.90;;;15.83;100.00;97613.34;5067063;28;20040;-73
2023/09/11 01:00:58;;;;;;;15.93;7.03;;;16.90;99.90;;;15.76;100.00;97614.66;5063885;28;20059;-73
2023/09/11 01:03:26;;;;;;;11.35;4.53;;;16.80;99.90;;;15.84;100.00;97604.56;5065275;28;20254;-73
2023/09/11 01:05:55;;;;;;;15.18;6.70;;;16.80;99.90;;;15.71;100.00;97608.88;5058173;28;20063;-72
2023/09/11 01:08:22;;;;;;;11.98;6.50;;;16.80;99.90;;;15.65;100.00;97604.84;5060338;28;20045;-73
2023/09/11 01:10:52;;;;;;;10.48;5.55;;;16.80;99.90;;;15.59;100.00;97603.44;5064360;28;20155;-73
2023/09/11 01:13:21;;;;;;;17.83;7.70;;;16.70;99.90;;;15.51;100.00;97612.69;5061893;28;20265;-73
2023/09/11 01:16:09;;;;;;;10.05;5.22;;;16.70;99.90;;;15.39;100.00;97607.28;5065927;28;20555;-73
2023/09/11 01:19:10;;;;;;;14.57;5.93;;;16.60;99.90;;;15.42;100.00;97614.13;5063329;28;20948;-73
2023/09/11 01:22:15;;;;;;;12.98;6.63;;;16.50;99.90;;;15.46;100.00;97612.97;5062771;28;20484;-73
2023/09/11 01:25:22;;;;;;;11.77;5.93;;;16.50;99.90;;;15.53;100.00;97613.44;5045049;28;20076;-73
2023/09/11 01:28:20;;;;;;;9.05;4.93;;;16.50;99.90;;;15.42;100.00;97611.50;5056740;28;20041;-73
2023/09/11 01:30:49;;;;;;;15.02;6.90;;;16.50;99.90;;;15.38;100.00;97602.16;5062099;28;20475;-73
2023/09/11 01:33:17;;;;;;;10.93;5.63;;;16.50;99.90;;;15.35;100.00;97603.19;5066140;28;20049;-72
2023/09/11 01:35:47;;;;;;;11.27;4.65;;;16.40;99.90;;;15.37;100.00;97601.34;5066310;28;20250;-73
2023/09/11 01:38:14;;;;;;;10.40;5.43;;;16.40;99.90;;;15.29;100.00;97600.94;5065813;28;20053;-73
2023/09/11 01:40:44;;;;;;;16.08;7.30;;;16.40;99.90;;;15.34;100.00;97601.50;5063571;28;20117;-73
2023/09/11 01:43:13;;;;;;;12.35;4.70;;;16.30;99.90;;;15.32;100.00;97602.53;5063795;28;20041;-73
2023/09/11 01:45:41;;;;;;;16.98;7.05;;;16.30;99.90;;;15.29;100.00;97605.34;5048516;28;20074;-73
2023/09/11 01:48:10;;;;;;;9.95;5.38;;;16.30;99.90;;;15.25;100.00;97599.44;5066519;28;20040;-73
2023/09/11 01:50:40;;;;;;;11.05;5.50;;;16.30;99.90;;;15.20;100.00;97604.13;5063903;28;20051;-73
2023/09/11 01:53:08;;;;;;;14.27;5.20;;;16.30;99.90;;;15.12;100.00;97603.75;5066904;28;20137;-73
2023/09/11 01:55:36;;;;;;;11.48;5.97;;;16.20;99.90;;;15.10;100.00;97603.84;5048317;28;20087;-73
2023/09/11 01:58:03;;;;;;;10.93;5.03;;;16.20;99.90;;;15.08;100.00;97602.28;5064888;28;20403;-73
2023/09/11 02:00:30;;;;;;;12.85;4.32;;;16.20;99.90;;;15.08;100.00;97607.50;5062751;28;20076;-73
2023/09/11 02:02:57;;;;;;;11.93;5.03;;;16.20;99.90;;;15.16;100.00;97600.00;5066448;28;20052;-73
2023/09/11 02:05:25;;;;;;;8.93;4.13;;;16.20;99.90;;;15.26;100.00;97601.97;5065423;28;20088;-73
2023/09/11 02:07:52;;;;;;;11.50;4.13;;;16.20;99.90;;;15.33;100.00;97596.38;5065829;28;20459;-72
2023/09/11 02:10:19;;;;;;;10.30;5.60;;;16.20;99.90;;;15.28;100.00;97596.66;5063293;28;20044;-73
2023/09/11 02:12:46;;;;;;;7.35;4.70;;;16.30;99.90;;;15.26;100.00;97599.38;5063190;28;20056;-73
2023/09/11 02:15:16;;;;;;;8.07;5.10;;;16.30;99.90;;;15.12;100.00;97591.53;5066591;28;20045;-73
2023/09/11 02:17:43;;;;;;;11.95;5.82;;;16.20;99.90;;;14.93;100.00;97599.63;5067623;28;20175;-73
2023/09/11 02:20:11;;;;;;;10.13;5.15;;;16.20;99.90;;;14.92;100.00;97597.97;5057756;28;20509;-73
2023/09/11 02:22:38;;;;;;;12.13;6.80;;;16.10;99.90;;;14.89;100.00;97595.50;5064887;28;20048;-73
2023/09/11 02:25:08;;;;;;;11.45;4.95;;;16.10;99.90;;;14.91;100.00;97587.59;5065021;28;20052;-72
2023/09/11 02:27:36;;;;;;;13.10;5.97;;;16.00;99.90;;;14.82;100.00;97588.97;5062927;28;20045;-73
2023/09/11 02:30:04;;;;;;;12.38;6.05;;;15.90;99.90;;;14.80;100.00;97591.69;5066377;28;20123;-73
2023/09/11 02:32:31;;;;;;;13.93;5.30;;;15.90;99.90;;;14.78;100.00;97588.31;5065273;28;20133;-73
2023/09/11 02:34:58;;;;;;;11.48;7.32;;;15.80;99.90;;;14.78;100.00;97588.31;5064765;28;20131;-73
2023/09/11 02:37:25;;;;;;;13.60;7.22;;;15.80;99.90;;;14.82;100.00;97591.59;5063603;28;20234;-73
2023/09/11 02:39:53;;;;;;;11.98;5.15;;;15.80;99.90;;;14.88;100.00;97587.78;5062393;28;20172;-73
2023/09/11 02:42:20;;;;;;;11.55;4.68;;;15.80;99.90;;;14.85;100.00;97591.41;5064909;28;20045;-73
2023/09/11 02:44:47;;;;;;;10.48;4.88;;;15.90;99.90;;;14.82;100.00;97591.59;5066148;28;20519;-73
2023/09/11 02:47:14;;;;;;;13.90;5.50;;;15.90;99.90;;;14.91;100.00;97590.19;5063427;28;20137;-73
2023/09/11 02:49:41;;;;;;;11.88;5.80;;;15.90;99.90;;;14.84;100.00;97590.56;5065678;28;20102;-73
2023/09/11 02:52:08;;;;;;;8.02;4.38;;;15.90;99.90;;;14.82;100.00;97591.59;5060162;28;20048;-73
2023/09/11 02:54:38;;;;;;;15.10;5.60;;;15.90;99.90;;;14.78;100.00;97584.84;5064867;28;20087;-73
2023/09/11 02:57:07;;;;;;;11.57;5.07;;;15.80;99.90;;;14.73;100.00;97579.91;5063785;28;20056;-73
2023/09/11 02:59:34;;;;;;;12.75;5.30;;;15.80;99.90;;;14.77;100.00;97578.78;5063351;28;20049;-73
2023/09/11 03:02:02;;;;;;;16.42;5.55;;;15.80;99.90;;;14.69;100.00;97578.44;5062934;28;20076;-73
2023/09/11 03:04:29;;;;;;;14.32;6.15;;;15.80;99.90;;;14.65;100.00;97576.91;5061722;28;20053;-73
2023/09/11 03:06:57;;;;;;;10.48;6.82;;;15.80;99.90;;;14.71;100.00;97570.47;5061597;28;20562;-73
2023/09/11 03:09:24;;;;;;;13.15;7.43;;;15.80;99.90;;;14.71;100.00;97562.63;5063219;28;20048;-73
2023/09/11 03:11:51;;;;;;;10.88;4.88;;;15.80;99.90;;;14.77;100.00;97565.72;5060995;28;20084;-73
2023/09/11 03:14:18;;;;;;;11.00;4.82;;;15.80;99.90;;;14.82;100.00;97568.94;5062805;28;20044;-72
2023/09/11 03:16:45;;;;;;;11.75;4.72;;;15.80;99.90;;;14.75;100.00;97566.75;5063653;28;20052;-73
2023/09/11 03:19:13;;;;;;;15.30;4.55;;;15.80;99.90;;;14.71;100.00;97568.72;5062813;28;20445;-72
2023/09/11 03:21:40;;;;;;;13.68;4.85;;;15.80;99.90;;;14.71;100.00;97567.84;5062503;28;20060;-73
2023/09/11 03:24:07;;;;;;;8.70;4.47;;;15.80;99.90;;;14.75;100.00;97564.13;5066076;28;20049;-73
2023/09/11 03:26:36;;;;;;;9.18;4.85;;;15.80;99.90;;;14.67;100.00;97563.78;5063122;28;20129;-73
2023/09/11 03:29:03;;;;;;;8.98;4.22;;;15.80;99.90;;;14.75;100.00;97566.75;5061676;28;20052;-72
2023/09/11 03:31:30;;;;;;;11.05;5.32;;;15.70;99.90;;;14.64;100.00;97559.53;5065743;28;20124;-73
2023/09/11 03:33:57;;;;;;;14.52;5.60;;;15.80;99.90;;;14.57;100.00;97566.06;5064277;28;20119;-73
2023/09/11 03:36:25;;;;;;;9.43;6.60;;;15.70;99.90;;;14.64;100.00;97559.53;5063127;28;20410;-73
2023/09/11 03:38:52;;;;;;;11.23;4.60;;;15.70;99.90;;;14.73;100.00;97560.78;5063708;28;20142;-73
2023/09/11 03:41:19;;;;;;;8.50;4.88;;;15.70;99.90;;;14.69;100.00;97557.53;5080528;28;20129;-73
2023/09/11 03:43:46;;;;;;;11.52;5.60;;;15.70;99.90;;;14.57;100.00;97555.63;5064101;28;20058;-73
2023/09/11 03:46:14;;;;;;;12.77;5.82;;;15.70;99.90;;;14.67;100.00;97554.16;5063150;28;20109;-73
2023/09/11 03:48:41;;;;;;;14.60;5.38;;;15.70;99.90;;;14.41;100.00;97553.91;5065591;28;20048;-73
2023/09/11 03:51:09;;;;;;;12.05;4.93;;;15.60;99.90;;;14.47;100.00;97546.63;5059881;28;20162;-73
2023/09/11 03:53:42;;;;;;;14.45;5.28;;;15.60;99.90;;;14.52;100.00;97549.81;5064433;28;20069;-73
2023/09/11 03:56:14;;;;;;;12.15;5.05;;;15.50;99.90;;;14.42;100.00;97549.50;5080536;28;20048;-72
2023/09/11 03:58:46;;;;;;;11.68;4.95;;;15.50;99.90;;;14.53;100.00;97549.72;5063481;28;20109;-72
2023/09/11 04:01:13;;;;;;;11.70;5.15;;;15.50;99.90;;;14.53;100.00;97539.28;5048576;28;20598;-73
2023/09/11 04:03:41;;;;;;;10.52;5.40;;;15.50;99.90;;;14.58;100.00;97542.47;5062569;28;20421;-73
2023/09/11 04:06:09;;;;;;;8.88;4.97;;;15.60;99.90;;;14.65;100.00;97550.78;5061532;28;20048;-73
2023/09/11 04:08:36;;;;;;;11.70;6.85;;;15.60;99.90;;;14.35;100.00;97542.97;5064260;28;20051;-72
2023/09/11 04:11:05;;;;;;;12.07;5.88;;;15.50;99.90;;;14.39;100.00;97547.06;5073149;28;20055;-73
2023/09/11 04:13:34;;;;;;;15.82;5.45;;;15.40;99.90;;;14.24;100.00;97538.38;5061853;28;20045;-73
2023/09/11 04:16:01;;;;;;;16.00;6.53;;;15.30;99.90;;;14.20;100.00;97544.69;5061166;28;20080;-73
2023/09/11 04:18:28;;;;;;;11.68;5.95;;;15.20;99.90;;;14.29;100.00;97543.31;5061891;28;20103;-73
2023/09/11 04:21:01;;;;;;;14.10;7.75;;;15.10;99.90;;;14.30;100.00;97547.59;5060713;28;20626;-73
2023/09/11 04:23:29;;;;;;;15.20;6.05;;;15.10;99.90;;;14.40;100.00;97541.75;5061225;28;20041;-73
2023/09/11 04:25:56;;;;;;;11.13;5.82;;;15.20;99.90;;;14.49;100.00;97535.16;5064671;28;20126;-74
2023/09/11 04:28:23;;;;;;;12.65;6.15;;;15.30;99.90;;;14.44;100.00;97540.66;5045787;28;20538;-73
2023/09/11 04:30:50;;;;;;;11.38;5.43;;;15.30;99.90;;;14.51;100.00;97537.69;5060975;28;20492;-73
2023/09/11 04:33:18;;;;;;;9.85;5.43;;;15.40;99.90;;;14.59;100.00;97538.91;5060058;28;20053;-73
2023/09/11 04:35:45;;;;;;;12.02;5.45;;;15.40;99.90;;;14.53;100.00;97541.88;5067050;28;20087;-73
2023/09/11 04:38:12;;;;;;;8.27;4.78;;;15.40;99.90;;;14.48;100.00;97537.84;5082470;28;20052;-73
2023/09/11 04:40:40;;;;;;;13.85;7.30;;;15.40;99.90;;;14.30;100.00;97538.00;5059247;28;20759;-73
2023/09/11 04:43:07;;;;;;;10.82;5.47;;;15.40;99.90;;;14.33;100.00;97534.38;5066062;28;20049;-73
2023/09/11 04:45:34;;;;;;;15.77;4.88;;;15.30;99.90;;;14.39;100.00;97537.47;5065123;28;20135;-73
2023/09/11 04:48:03;;;;;;;9.13;5.47;;;15.30;99.90;;;14.36;100.00;97531.59;5063537;28;20045;-73
2023/09/11 04:50:30;;;;;;;12.50;5.50;;;15.30;99.90;;;14.40;100.00;97533.09;5046475;28;20066;-73
2023/09/11 04:52:58;;;;;;;12.32;5.00;;;15.20;99.90;;;14.30;100.00;97530.19;5075646;28;20572;-73
2023/09/11 04:55:24;;;;;;;11.00;5.13;;;15.20;99.90;;;14.30;100.00;97526.72;5050395;28;20048;-73
2023/09/11 04:57:52;;;;;;;15.35;6.63;;;15.20;99.90;;;14.34;100.00;97530.81;5065925;28;20049;-73
2023/09/11 05:00:19;;;;;;;11.05;5.38;;;15.30;99.90;;;14.12;100.00;97528.66;5065877;28;20067;-73
2023/09/11 05:02:47;;;;;;;18.27;6.68;;;15.20;99.90;;;13.93;100.00;97541.88;5060973;28;20056;-74
2023/09/11 05:05:15;;;;;;;10.43;5.90;;;15.10;99.90;;;14.11;100.00;97546.06;5063193;28;20053;-73
2023/09/11 05:07:43;;;;;;;13.73;6.65;;;15.10;99.90;;;14.23;100.00;97541.88;5067562;28;20056;-73
2023/09/11 05:10:14;;;;;;;10.95;5.50;;;15.20;99.90;;;14.35;100.00;97541.19;5063097;28;20075;-73
2023/09/11 05:12:41;;;;;;;14.70;6.63;;;15.20;99.90;;;14.44;100.00;97539.81;5067129;28;20044;-73
2023/09/11 05:15:09;;;;;;;12.80;5.72;;;15.30;99.90;;;14.15;100.00;97544.94;5065527;28;20045;-73
2023/09/11 05:17:36;;;;;;;13.98;6.20;;;15.30;99.90;;;14.27;100.00;97545.16;5067679;28;20059;-73
2023/09/11 05:20:06;;;;;;;9.68;4.80;;;15.20;99.90;;;14.33;100.00;97548.28;5066880;28;20044;-73
2023/09/11 05:22:33;;;;;;;10.60;5.20;;;15.20;99.90;;;14.29;100.00;97549.38;5066676;28;20082;-73
2023/09/11 05:25:01;;;;;;;14.30;6.82;;;15.10;99.90;;;14.30;100.00;97551.06;5067742;28;20048;-73
2023/09/11 05:27:28;;;;;;;13.77;5.80;;;15.10;99.90;;;14.41;100.00;97548.69;5065900;28;20048;-73
2023/09/11 05:29:55;;;;;;;13.15;6.05;;;15.10;99.90;;;14.57;100.00;97547.78;5068540;28;20056;-72
2023/09/11 05:32:25;;;;;;;8.65;4.28;;;15.20;99.90;;;14.59;100.00;97549.38;5067725;28;20045;-73
2023/09/11 05:34:53;;;;;;;15.80;5.97;;;15.30;99.90;;;14.71;100.00;97549.56;5067870;28;20125;-73
2023/09/11 05:37:20;;;;;;;11.00;5.55;;;15.50;99.90;;;14.77;100.00;97551.81;5066218;28;20040;-73
2023/09/11 05:39:47;;;;;;;13.25;5.13;;;15.40;99.90;;;14.68;100.00;97549.75;5068618;28;20536;-73
2023/09/11 05:42:16;;;;;;;15.05;7.65;;;15.40;99.90;;;14.48;100.00;97545.69;5066983;28;20041;-73
2023/09/11 05:44:43;;;;;;;14.50;6.38;;;15.30;99.90;;;14.56;100.00;97551.34;5066418;28;20113;-73
2023/09/11 05:47:10;;;;;;;15.07;5.78;;;15.30;99.90;;;14.58;100.00;97558.16;5067635;28;20080;-72
2023/09/11 05:49:38;;;;;;;15.35;6.63;;;15.30;99.90;;;14.60;100.00;97564.13;5064401;28;20051;-73
2023/09/11 05:52:06;;;;;;;12.13;6.15;;;15.30;99.90;;;14.38;100.00;97563.66;5066584;28;20044;-73
2023/09/11 05:54:36;;;;;;;9.30;5.65;;;15.20;99.90;;;14.44;100.00;97558.94;5063748;28;20044;-72
2023/09/11 05:57:03;;;;;;;14.45;6.28;;;15.10;99.90;;;14.48;100.00;97558.75;5080711;28;20045;-73
2023/09/11 05:59:31;;;;;;;10.52;7.40;;;15.10;99.90;;;14.67;100.00;97569.00;5068606;28;20052;-72
2023/09/11 06:01:58;;;;;;;9.77;5.13;;;15.20;99.90;;;14.92;100.00;97563.97;5066659;28;20086;-73
2023/09/11 06:04:45;;;;;;;11.43;5.80;;;15.40;99.90;;;15.10;100.00;97555.94;5065356;28;20070;-73
2023/09/11 06:07:12;;;;;;;13.73;5.78;;;15.50;99.90;;;15.15;100.00;97557.34;5063626;28;20044;-73
2023/09/11 06:09:39;;;;;;;11.43;5.60;;;15.70;99.90;;;15.21;100.00;97562.22;5067999;28;20489;-72
2023/09/11 06:12:07;;;;;;;10.75;5.70;;;15.80;99.90;;;15.44;100.00;97558.16;5082447;28;20155;-73
2023/09/11 06:14:37;;;;;;;18.85;5.82;;;15.90;99.90;;;15.34;100.00;97553.59;5048905;28;20481;-73
2023/09/11 06:17:12;;;;;;;12.73;5.38;;;15.90;99.90;;;15.48;100.00;97558.78;5061709;28;20048;-73
2023/09/11 06:19:39;;;;;;;11.52;5.97;;;16.00;99.90;;;15.62;100.00;97557.91;5065128;28;20052;-73
2023/09/11 06:22:06;;;;;;;11.85;5.60;;;16.10;99.90;;;15.82;100.00;97541.00;5067197;28;20432;-73
2023/09/11 06:24:34;;;;;;;11.38;5.50;;;16.20;99.90;;;16.02;100.00;97544.94;5063984;28;20048;-73
2023/09/11 06:27:06;;;;;;;12.23;6.03;;;16.40;99.90;;;15.90;100.00;97543.97;5062228;28;20548;-73
2023/09/11 06:29:34;;;;;;;;;;;16.50;99.90;;;15.96;100.00;97537.47;5063304;28;20055;-72
2023/09/11 06:32:02;;;;;;;13.57;5.97;;;16.50;99.90;;;16.19;100.00;97543.81;5061277;28;20389;-72
2023/09/11 06:34:30;;;;;;;11.75;5.43;;;16.60;99.90;;;16.33;100.00;97540.28;5065643;28;20080;-73
2023/09/11 06:36:58;;;;;;;10.95;5.55;;;16.80;99.90;;;16.60;100.00;97548.09;5063254;28;20083;-73
2023/09/11 06:39:25;;;;;;;11.68;5.32;;;16.80;99.90;;;16.49;100.00;97544.41;5046068;28;20528;-73
2023/09/11 06:41:52;;;;;;;9.73;5.18;;;16.90;99.90;;;16.85;100.00;97542.88;5063154;28;20052;-73
2023/09/11 06:44:19;;;;;;;12.75;5.70;;;17.00;99.90;;;16.97;100.00;97540.34;5058739;28;20044;-73
2023/09/11 06:46:46;;;;;;;11.05;5.85;;;17.20;99.90;;;17.12;100.00;97541.94;5062238;28;20547;-73
2023/09/11 06:49:14;;;;;;;13.02;6.18;;;17.40;99.90;;;17.19;100.00;97537.09;5057372;28;20041;-72
2023/09/11 06:51:41;;;;;;;14.43;5.28;;;17.50;99.90;;;17.45;100.00;97532.66;5054837;28;20084;-73
2023/09/11 06:54:12;;;;;;;14.45;6.80;;;17.60;99.90;;;17.30;100.00;97529.31;5065459;28;20053;-72
2023/09/11 06:56:42;;;;;;;15.77;5.45;;;17.70;99.90;;;17.58;100.00;97530.78;5061404;28;20098;-73
2023/09/11 06:59:10;;;;;;;12.63;5.57;;;17.80;99.90;;;17.88;100.00;97533.03;5065379;28;20067;-73
2023/09/11 07:01:39;;;;;;;9.93;5.20;;;18.00;99.90;;;18.13;100.00;97529.44;5063467;28;20433;-72
2023/09/11 07:04:10;;;;;;;15.48;5.28;;;18.20;99.90;;;18.24;100.00;97525.16;5056705;28;20056;-73
2023/09/11 07:06:39;;;;;;;14.50;5.30;;;18.40;99.90;;;18.37;100.00;97533.81;5062919;28;20595;-73
2023/09/11 07:09:07;;;;;;;8.68;4.80;;;18.60;99.90;;;18.74;100.00;97528.41;5062179;28;20133;-73
2023/09/11 07:11:35;;;;;;;16.10;5.15;;;18.80;99.90;;;18.89;100.00;97523.81;5062908;28;20537;-73
2023/09/11 07:14:02;;;;;;;10.77;5.10;;;19.00;99.90;;;19.00;100.00;97535.16;5064441;28;20505;-73
2023/09/11 07:16:29;;;;;;;11.40;5.43;;;19.20;99.90;;;19.01;100.00;97530.72;5065309;28;20057;-73
2023/09/11 07:18:57;;;;;;;10.07;5.13;;;19.30;99.90;;;19.14;100.00;97535.88;5065743;28;20139;-73
2023/09/11 07:21:24;;;;;;;10.98;5.28;;;19.40;99.90;;;19.38;100.00;97533.09;5061840;28;20122;-73
2023/09/11 07:23:51;;;;;;;11.55;5.70;;;19.50;99.90;;;19.43;100.00;97533.56;5062755;28;20059;-73
2023/09/11 07:26:18;;;;;;;12.93;5.53;;;19.60;99.90;;;19.58;100.00;97531.53;5067470;28;20041;-74
2023/09/11 07:28:58;;;;;;;11.10;4.88;;;19.70;99.90;;;19.77;100.00;97531.72;5062519;28;20833;-73
2023/09/11 07:31:25;;;;;;;12.40;5.60;;;19.90;99.90;;;19.83;100.00;97535.69;5062719;28;20055;-73
2023/09/11 07:33:52;;;;;;;12.00;6.22;;;20.00;99.90;;;19.86;100.00;97527.53;5063992;28;20137;-73
2023/09/11 07:36:22;;;;;;;11.88;6.53;;;20.10;99.90;;;19.97;100.00;97535.38;5064572;28;20155;-73
2023/09/11 07:38:49;;;;;;;9.95;6.03;;;20.20;99.90;;;20.02;100.00;97535.84;5060357;28;20145;-73
2023/09/11 07:41:19;;;;;;;9.55;5.28;;;20.50;99.90;;;20.43;100.00;97533.38;5062444;28;20092;-73
2023/09/11 07:43:49;;;;;;;15.50;6.05;;;20.70;99.90;;;20.82;100.00;97531.03;5059539;28;20064;-73
2023/09/11 07:46:20;;;;;;;13.48;5.03;;;20.90;99.90;;;21.34;100.00;97523.88;5044822;28;20049;-73
2023/09/11 07:48:49;;;;;;;15.25;5.47;;;21.20;99.90;;;21.57;100.00;97526.34;5059171;28;20127;-72
2023/09/11 07:51:17;;;;;;;14.50;5.95;;;21.50;99.90;;;21.98;100.00;97525.28;5055461;28;20525;-74
2023/09/11 07:53:44;;;;;;;9.90;5.20;;;21.70;99.90;;;22.60;100.00;97517.91;5061006;28;20087;-74
2023/09/11 07:56:13;;;;;;;12.50;5.25;;;22.00;99.90;;;23.20;100.00;97522.94;5058475;28;20052;-74
2023/09/11 07:58:40;;;;;;;13.63;5.30;;;22.30;99.90;;;23.75;100.00;97520.28;5056263;28;20074;-73
2023/09/11 08:01:08;;;;;;;13.70;5.20;;;22.50;99.90;;;24.61;100.00;97522.41;5056148;28;20554;-74
2023/09/11 08:03:35;;;;;;;11.75;4.78;;;23.00;99.90;;;25.32;100.00;97525.00;5058096;28;20048;-73
2023/09/11 08:06:05;;;;;;;12.13;4.75;;;23.40;99.90;;;25.51;100.00;97534.53;5059013;28;20102;-73
2023/09/11 08:08:33;;;;;;;11.07;4.43;;;24.10;99.90;;;25.83;100.00;97545.25;5076021;28;20068;-74
2023/09/11 08:11:18;;;;;;;11.60;4.88;;;25.00;99.90;;;25.95;100.00;97544.97;5064475;28;20090;-73
2023/09/11 08:13:46;;;;;;;9.35;4.03;;;25.90;99.90;;;26.89;100.00;97544.53;5057401;28;20135;-75
2023/09/11 08:16:15;;;;;;;8.65;4.50;;;27.00;99.90;;;26.69;100.00;97538.72;5057197;28;20092;-75
2023/09/11 08:18:43;;;;;;;11.43;4.35;;;28.00;99.90;;;27.59;100.00;97558.16;5059541;28;20162;-74
2023/09/11 08:21:12;;;;;;;8.40;4.03;;;29.00;99.90;;;28.12;100.00;97559.22;5042746;28;20070;-73
2023/09/11 08:23:43;;;;;;;9.05;3.50;;;29.70;99.90;;;29.11;100.00;97553.97;5062543;28;20044;-74
2023/09/11 08:26:11;;;;;;;9.18;3.83;;;30.00;99.90;;;28.63;100.00;97558.75;5059366;28;20048;-74
2023/09/11 08:28:38;;;;;;;9.73;3.30;;;30.50;99.90;;;29.58;100.00;97552.72;5058372;28;20044;-75
2023/09/11 08:31:06;;;;;;;7.90;3.50;;;31.10;99.90;;;29.65;100.00;97553.66;5056570;28;20060;-75
2023/09/11 08:33:33;;;;;;;8.48;3.55;;;31.80;99.90;;;29.45;100.00;97547.22;5062187;28;20054;-74
2023/09/11 08:36:21;;;;;;;11.15;3.00;;;32.10;99.90;;;29.79;100.00;97538.63;5063281;28;20132;-75
2023/09/11 08:38:48;;;;;;;5.20;3.00;;;32.20;98.70;;;29.74;100.00;97538.34;5059415;28;20064;-74
2023/09/11 08:41:19;;;;;;;6.10;2.70;;;32.30;96.70;;;29.87;100.00;97541.16;5060376;28;20473;-76
2023/09/11 08:43:46;;;;;;;11.93;2.72;;;32.30;96.30;;;29.89;100.00;97541.81;5058961;28;20177;-75
2023/09/11 08:46:17;;;;;;;8.77;3.22;;;32.30;96.20;;;30.56;100.00;97529.94;5056811;28;20076;-74
2023/09/11 08:48:49;;;;;;;6.80;2.45;;;32.60;95.40;;;30.70;100.00;97528.19;5060062;28;20052;-75
2023/09/11 08:51:23;;;;;;;10.30;2.95;;;32.90;94.50;;;30.79;100.00;97531.53;5044749;28;20219;-75
2023/09/11 08:53:52;;;;;;;8.25;3.35;;;33.00;94.50;;;31.16;100.00;97525.03;5047630;28;20040;-74
2023/09/11 08:56:20;;;;;;;6.78;2.65;;;33.20;93.90;;;31.90;100.00;97520.81;5061009;28;20048;-75
2023/09/11 08:58:51;;;;;;;7.20;2.75;;;33.40;93.30;;;31.93;100.00;97519.56;5060825;28;20059;-75
2023/09/11 09:01:21;;;;;;;7.95;3.00;;;33.70;93.10;;;32.19;100.00;97527.72;5059853;28;20505;-75
2023/09/11 09:03:50;;;;;;;12.95;2.92;;;33.80;92.80;;;32.42;100.00;97518.44;5061558;28;20080;-75
2023/09/11 09:06:19;;;;;;;8.13;3.00;;;34.00;93.10;;;31.30;100.00;97533.97;5057640;28;20055;-75
2023/09/11 09:08:47;;;;;;;6.40;2.55;;;33.80;91.90;;;32.64;100.00;97527.16;5061159;28;20437;-75
2023/09/11 09:11:16;;;;;;;8.00;3.05;;;34.00;92.30;;;32.61;100.00;97524.88;5056110;28;20049;-74
2023/09/11 09:13:43;;;;;;;5.85;3.00;;;34.20;91.90;;;32.56;100.00;97522.00;5058903;28;20084;-74
2023/09/11 09:16:10;;;;;;;11.25;2.85;;;34.30;91.60;;;31.90;100.00;97526.19;5064697;28;20040;-73
2023/09/11 09:18:37;;;;;;;6.93;3.33;;;34.00;91.10;;;31.88;100.00;97529.06;5064130;28;20429;-74
2023/09/11 09:21:05;;;;;;;6.15;3.03;;;33.80;90.90;;;32.63;100.00;97523.63;5062049;28;20125;-74
2023/09/11 09:23:35;;;;;;;6.18;2.90;;;33.40;90.80;;;31.84;100.00;97527.84;5063439;28;20063;-72
2023/09/11 09:26:06;;;;;;;7.70;3.58;;;33.60;91.60;;;32.66;100.00;97519.72;5045609;28;20115;-73
2023/09/11 09:28:34;;;;;;;6.38;2.65;;;33.90;91.40;;;33.49;100.00;97514.59;5080551;28;20049;-73
2023/09/11 09:31:03;;;;;;;6.28;2.90;;;34.30;90.80;;;33.56;100.00;97511.06;5063524;28;20051;-74
2023/09/11 09:33:32;;;;;;;5.93;2.90;;;34.40;90.20;;;33.58;100.00;97509.84;5061768;28;20472;-75
2023/09/11 09:35:59;;;;;;;4.63;2.30;;;34.50;90.60;;;34.53;100.00;97498.25;5043023;28;20156;-74
2023/09/11 09:38:27;;;;;;;7.47;3.15;;;34.90;90.30;;;32.98;100.00;97503.75;5062424;28;20591;-74
2023/09/11 09:40:57;;;;;;;8.30;2.88;;;34.80;87.70;;;33.27;100.00;97499.78;5063435;28;20056;-73
2023/09/11 09:43:24;;;;;;;7.07;3.28;;;35.10;87.80;;;34.42;100.00;97497.13;5045710;28;20193;-74
2023/09/11 09:45:51;;;;;;;6.28;2.70;;;35.30;88.80;;;35.22;100.00;97501.81;5061325;28;20068;-74
2023/09/11 09:48:20;;;;;;;6.93;3.22;;;35.50;88.70;;;33.53;100.00;97493.47;5041702;28;20044;-70
2023/09/11 09:50:58;;;;;;;4.90;2.55;;;35.10;86.70;;;33.34;100.00;97489.81;5056591;28;20049;-75
2023/09/11 09:53:33;;;;;;;9.35;2.90;;;35.00;83.00;;;34.45;100.00;97490.47;5063388;28;20131;-72
2023/09/11 09:56:07;;;;;;;9.20;3.13;;;34.30;84.50;;;33.60;100.00;97501.53;5060980;28;20059;-73
2023/09/11 09:58:39;;;;;;;8.90;3.10;;;34.20;88.60;;;32.45;100.00;97499.22;5061240;28;20143;-73
2023/09/11 10:01:16;;;;;;;5.35;2.50;;;34.00;86.30;;;33.11;100.00;97493.81;5058152;28;20515;-73
2023/09/11 10:03:49;;;;;;;4.93;2.50;;;34.20;87.70;;;34.68;100.00;97484.50;5060059;28;20099;-73
2023/09/11 10:06:19;;;;;;;6.65;2.65;;;34.70;89.00;;;34.68;100.00;97479.09;5058805;28;20044;-74
2023/09/11 10:08:48;;;;;;;9.10;2.40;;;35.10;84.40;;;33.81;100.00;97485.06;5052594;28;20121;-73
2023/09/11 10:11:32;;;;;;;5.00;2.40;;;35.10;83.00;;;34.12;100.00;97475.38;5063647;28;20091;-74
2023/09/11 10:14:02;;;;;;;5.97;2.60;;;35.00;83.30;;;33.81;94.30;97479.69;5060029;28;20474;-74
2023/09/11 10:16:33;;;;;;;;;;;34.40;80.50;;;33.03;99.09;97467.16;5063102;28;20053;-76